^^
Meteo Knjazevac Station Historical Data
Daily Summary for February 19, 2021 Units:  Both    English   Metric
Daily Weekly Monthly Yearly Custom
  High: Low: Average:
Temperature: 25 °F /  -3.9 °C 22.5 °F /  -5.3 °C 24.1 °F /  -4.4 °C
Dew Point: 20.4 °F /  -6.4 °C 18.4 °F /  -7.6 °C 19.3 °F /  -7.1 °C
Humidity: 85% 79% 82%
Wind Speed: 6mph /  9.7km/h - 2.5mph /  4km/h
Wind Gust: 10mph /  16.1km/h - -
Wind- - SW
Pressure: 30.29 in /  1025.6 hPa 30.28 in /  1025.3 hPa -
Precipitation: 0.00 in /  0 mm    
Historical Graphs
 
 
Tabular Data for February 19, 2021
Time Temperature Dew Point Pressure Wind Wind Speed Wind Gust Humidity Rainfall Rate (Hourly) solar Conditions
00:00 25 °F /  -3.9 °C 19.7 °F /  -6.8 °C 30.29in /  1025.6hPa WSW 6mph /  9.7km/h 9mph /  14.5km/h 80% 0.00in /  0mm 0 W/m2
00:10 25 °F /  -3.9 °C 19.7 °F /  -6.8 °C 30.29in /  1025.6hPa WSW 5mph /  8km/h 8mph /  12.9km/h 80% 0.00in /  0mm 0 W/m2
00:20 25 °F /  -3.9 °C 19.4 °F /  -7 °C 30.29in /  1025.6hPa SW 6mph /  9.7km/h 10mph /  16.1km/h 79% 0.00in /  0mm 0 W/m2
00:30 25 °F /  -3.9 °C 19.4 °F /  -7 °C 30.29in /  1025.6hPa SW 5mph /  8km/h 10mph /  16.1km/h 79% 0.00in /  0mm 0 W/m2
00:40 25 °F /  -3.9 °C 19.7 °F /  -6.8 °C 30.29in /  1025.6hPa SW 6mph /  9.7km/h 8mph /  12.9km/h 80% 0.00in /  0mm 0 W/m2
00:50 25 °F /  -3.9 °C 19.7 °F /  -6.8 °C 30.29in /  1025.6hPa WSW 3mph /  4.8km/h 8mph /  12.9km/h 80% 0.00in /  0mm 0 W/m2
01:00 24.8 °F /  -4 °C 19.5 °F /  -6.9 °C 30.29in /  1025.6hPa SW 3mph /  4.8km/h 7mph /  11.3km/h 80% 0.00in /  0mm 0 W/m2
01:10 24.8 °F /  -4 °C 19.5 °F /  -6.9 °C 30.29in /  1025.6hPa SW 3mph /  4.8km/h 7mph /  11.3km/h 80% 0.00in /  0mm 0 W/m2
01:20 24.8 °F /  -4 °C 19.5 °F /  -6.9 °C 30.29in /  1025.6hPa SW 3mph /  4.8km/h 7mph /  11.3km/h 80% 0.00in /  0mm 0 W/m2
01:30 24.8 °F /  -4 °C 19.5 °F /  -6.9 °C 30.29in /  1025.6hPa SW 3mph /  4.8km/h 7mph /  11.3km/h 80% 0.00in /  0mm 0 W/m2
01:40 24.8 °F /  -4 °C 19.2 °F /  -7.1 °C 30.29in /  1025.6hPa SW 5mph /  8km/h 10mph /  16.1km/h 79% 0.00in /  0mm 0 W/m2
01:50 24.9 °F /  -3.9 °C 19.6 °F /  -6.9 °C 30.29in /  1025.6hPa WSW 3mph /  4.8km/h 7mph /  11.3km/h 80% 0.00in /  0mm 0 W/m2
02:00 24.8 °F /  -4 °C 19.5 °F /  -6.9 °C 30.29in /  1025.6hPa WSW 3mph /  4.8km/h 7mph /  11.3km/h 80% 0.00in /  0mm 0 W/m2
02:10 25 °F /  -3.9 °C 19.4 °F /  -7 °C 30.29in /  1025.6hPa WSW 6mph /  9.7km/h 8mph /  12.9km/h 79% 0.00in /  0mm 0 W/m2
02:20 25 °F /  -3.9 °C 19.4 °F /  -7 °C 30.29in /  1025.6hPa WSW 5mph /  8km/h 10mph /  16.1km/h 79% 0.00in /  0mm 0 W/m2
02:30 24.8 °F /  -4 °C 19.5 °F /  -6.9 °C 30.29in /  1025.6hPa WSW 6mph /  9.7km/h 9mph /  14.5km/h 80% 0.00in /  0mm 0 W/m2
02:40 24.8 °F /  -4 °C 19.5 °F /  -6.9 °C 30.29in /  1025.6hPa WSW 3mph /  4.8km/h 8mph /  12.9km/h 80% 0.00in /  0mm 0 W/m2
02:50 24.6 °F /  -4.1 °C 19.3 °F /  -7.1 °C 30.29in /  1025.6hPa WSW 3mph /  4.8km/h 6mph /  9.7km/h 80% 0.00in /  0mm 0 W/m2
03:00 24.4 °F /  -4.2 °C 19.2 °F /  -7.1 °C 30.29in /  1025.6hPa WSW 3mph /  4.8km/h 6mph /  9.7km/h 80% 0.00in /  0mm 0 W/m2
03:10 24.3 °F /  -4.3 °C 19.3 °F /  -7.1 °C 30.29in /  1025.6hPa WSW 3mph /  4.8km/h 6mph /  9.7km/h 81% 0.00in /  0mm 0 W/m2
03:20 24.2 °F /  -4.3 °C 19.2 °F /  -7.1 °C 30.29in /  1025.6hPa SW 3mph /  4.8km/h 7mph /  11.3km/h 81% 0.00in /  0mm 0 W/m2
03:30 24.1 °F /  -4.4 °C 19.1 °F /  -7.2 °C 30.29in /  1025.6hPa WSW 2mph /  3.2km/h 5mph /  8km/h 81% 0.00in /  0mm 0 W/m2
03:40 23.9 °F /  -4.5 °C 18.9 °F /  -7.3 °C 30.29in /  1025.6hPa WSW 2mph /  3.2km/h 3mph /  4.8km/h 81% 0.00in /  0mm 0 W/m2
03:50 23.9 °F /  -4.5 °C 18.9 °F /  -7.3 °C 30.29in /  1025.6hPa West 2mph /  3.2km/h 6mph /  9.7km/h 81% 0.00in /  0mm 0 W/m2
04:00 23.7 °F /  -4.6 °C 18.7 °F /  -7.4 °C 30.28in /  1025.3hPa Calm   4mph /  6.4km/h 81% 0.00in /  0mm 0 W/m2
04:10 23.5 °F /  -4.7 °C 19.1 °F /  -7.2 °C 30.28in /  1025.3hPa West 1mph /  1.6km/h 3mph /  4.8km/h 83% 0.00in /  0mm 0 W/m2
04:20 23.4 °F /  -4.8 °C 19 °F /  -7.2 °C 30.28in /  1025.3hPa SW 1mph /  1.6km/h 4mph /  6.4km/h 83% 0.00in /  0mm 0 W/m2
04:30 23.4 °F /  -4.8 °C 19 °F /  -7.2 °C 30.28in /  1025.3hPa Calm   6mph /  9.7km/h 83% 0.00in /  0mm 0 W/m2
04:40 23 °F /  -5 °C 18.6 °F /  -7.4 °C 30.28in /  1025.3hPa West 2mph /  3.2km/h 3mph /  4.8km/h 83% 0.00in /  0mm 0 W/m2
04:50 22.6 °F /  -5.2 °C 18.5 °F /  -7.5 °C 30.28in /  1025.3hPa West 2mph /  3.2km/h 3mph /  4.8km/h 84% 0.00in /  0mm 0 W/m2
05:00 22.5 °F /  -5.3 °C 18.4 °F /  -7.6 °C 30.28in /  1025.3hPa WSW 1mph /  1.6km/h 3mph /  4.8km/h 84% 0.00in /  0mm 0 W/m2
05:10 22.5 °F /  -5.3 °C 18.4 °F /  -7.6 °C 30.28in /  1025.3hPa Calm   2mph /  3.2km/h 84% 0.00in /  0mm 0 W/m2
05:20 22.6 °F /  -5.2 °C 18.5 °F /  -7.5 °C 30.28in /  1025.3hPa Calm   2mph /  3.2km/h 84% 0.00in /  0mm 0 W/m2
05:30 22.8 °F /  -5.1 °C 18.7 °F /  -7.4 °C 30.28in /  1025.3hPa Calm   2mph /  3.2km/h 84% 0.00in /  0mm 0 W/m2
05:40 23 °F /  -5 °C 18.9 °F /  -7.3 °C 30.28in /  1025.3hPa SSE 1mph /  1.6km/h 3mph /  4.8km/h 84% 0.00in /  0mm 0 W/m2
05:50 23.4 °F /  -4.8 °C 19.2 °F /  -7.1 °C 30.28in /  1025.3hPa SSE 2mph /  3.2km/h 6mph /  9.7km/h 84% 0.00in /  0mm 0 W/m2
06:00 23.4 °F /  -4.8 °C 19.5 °F /  -6.9 °C 30.29in /  1025.6hPa SW 1mph /  1.6km/h 5mph /  8km/h 85% 0.00in /  0mm 0 W/m2
06:10 23.5 °F /  -4.7 °C 19.7 °F /  -6.8 °C 30.29in /  1025.6hPa SW 2mph /  3.2km/h 4mph /  6.4km/h 85% 0.00in /  0mm 0 W/m2
06:20 23.5 °F /  -4.7 °C 19.7 °F /  -6.8 °C 30.29in /  1025.6hPa SSW 1mph /  1.6km/h 5mph /  8km/h 85% 0.00in /  0mm 0 W/m2
06:30 23.9 °F /  -4.5 °C 20 °F /  -6.7 °C 30.29in /  1025.6hPa SSE 2mph /  3.2km/h 5mph /  8km/h 85% 0.00in /  0mm 0 W/m2
06:40 24.1 °F /  -4.4 °C 20.2 °F /  -6.6 °C 30.29in /  1025.6hPa South 1mph /  1.6km/h 4mph /  6.4km/h 85% 0.00in /  0mm 0 W/m2
06:50 24.1 °F /  -4.4 °C 20.2 °F /  -6.6 °C 30.29in /  1025.6hPa Calm   3mph /  4.8km/h 85% 0.00in /  0mm 0 W/m2
07:00 24.3 °F /  -4.3 °C 20.1 °F /  -6.6 °C 30.29in /  1025.6hPa SSW 1mph /  1.6km/h 7mph /  11.3km/h 84% 0.00in /  0mm 1 W/m2
07:10 24.3 °F /  -4.3 °C 20.4 °F /  -6.4 °C 30.29in /  1025.6hPa South 1mph /  1.6km/h 5mph /  8km/h 85% 0.00in /  0mm 4 W/m2
Knjazevac, Serbia
Compliments of Weather Underground - 2 mb